Time;durP1;ratioP1;P1;durP2;ratioP2;P2;SDS_P1;SDS_P2;PMS_P1;PMS_P2;Temp;Humidity;BMP_temperature;BMP_pressure;BME280_temperature;BME280_humidity;BME280_pressure;Samples;Min_cycle;Max_cycle;Signal;HPM_P1;HPM_P2
2024/04/21 05:12:47;;;;;;;10.50;3.83;;;;;;;5.88;74.75;100304.91;5048606;28;20003;-86
2024/04/21 05:15:23;;;;;;;9.90;3.63;;;;;;;5.90;73.87;100317.94;5051193;28;20089;-87
2024/04/21 05:17:51;;;;;;;7.63;3.40;;;;;;;5.95;74.97;100316.88;5050846;28;20007;-84
2024/04/21 05:20:18;;;;;;;8.27;3.80;;;;;;;5.99;75.04;100330.75;5050467;28;20460;-86
2024/04/21 05:22:45;;;;;;;7.38;3.38;;;;;;;6.03;75.30;100335.00;5050361;28;20015;-86
2024/04/21 10:23:09;;;;;;;4.22;3.47;;;;;;;13.04;66.63;100599.28;5079681;28;20038;-88
2024/04/21 10:25:39;;;;;;;4.55;3.70;;;;;;;13.00;65.84;100597.72;5082142;28;20010;-88
2024/04/21 10:28:08;;;;;;;5.20;3.55;;;;;;;12.95;65.14;100603.28;5080500;28;20002;-88
2024/04/21 10:30:36;;;;;;;3.80;3.33;;;;;;;12.92;64.92;100599.94;5081957;28;20003;-87
2024/04/21 10:33:06;;;;;;;3.55;3.20;;;;;;;12.83;64.19;100602.16;5054053;28;20006;-88
2024/04/21 10:35:34;;;;;;;4.80;3.70;;;;;;;12.77;64.54;100599.81;5080286;28;20010;-88
2024/04/21 10:38:05;;;;;;;5.03;3.80;;;;;;;12.66;61.33;100599.53;5080038;28;20038;-88
2024/04/21 10:40:35;;;;;;;4.05;3.28;;;;;;;12.57;63.50;100600.88;5054037;28;20428;-88
2024/04/21 10:43:02;;;;;;;3.40;2.78;;;;;;;12.51;65.19;100602.91;5054014;28;20013;-88
2024/04/21 10:45:37;;;;;;;3.70;2.95;;;;;;;12.48;61.94;100608.31;5054127;28;20010;-88
2024/04/21 10:48:08;;;;;;;3.58;3.00;;;;;;;12.48;62.83;100602.19;5081332;28;20011;-87
2024/04/21 10:50:37;;;;;;;3.70;2.83;;;;;;;12.51;64.57;100613.47;5081603;28;20011;-87
2024/04/21 10:53:06;;;;;;;2.80;2.50;;;;;;;12.53;64.11;100605.47;5053705;28;20017;-88
2024/04/21 10:55:34;;;;;;;4.03;2.70;;;;;;;12.52;63.99;100614.28;5081340;28;20007;-88
2024/04/21 10:58:03;;;;;;;2.50;2.30;;;;;;;12.53;64.04;100615.16;5081941;28;20005;-88
2024/04/21 11:00:30;;;;;;;3.38;2.35;;;;;;;12.62;66.76;100602.34;5084581;28;20026;-88
2024/04/21 11:02:57;;;;;;;3.30;2.25;;;;;;;12.87;67.24;100616.88;5084313;28;20002;-88
2024/04/21 11:05:31;;;;;;;3.08;2.65;;;;;;;13.19;64.65;100608.16;5056858;28;20014;-88
2024/04/21 11:08:01;;;;;;;2.90;2.20;;;;;;;13.64;69.24;100605.75;5082703;28;20018;-88
2024/04/21 11:10:34;;;;;;;2.80;2.25;;;;;;;14.04;61.60;100609.69;5082679;28;20328;-88
2024/04/21 11:13:08;;;;;;;;;;;;;;;14.40;61.47;100611.16;5084731;28;20453;-88
2024/04/21 11:15:41;;;;;;;2.90;2.33;;;;;;;14.87;62.34;100605.72;5084091;28;19930;-88
2024/04/21 11:18:10;;;;;;;3.88;2.20;;;;;;;15.26;63.54;100608.66;5056713;28;20013;-88
2024/04/21 11:20:36;;;;;;;6.50;2.78;;;;;;;15.57;64.50;100611.13;5084180;28;20010;-88
2024/04/21 11:26:02;;;;;;;5.85;2.65;;;;;;;16.18;64.37;100597.44;5047410;28;20746;-85
2024/04/21 11:28:29;;;;;;;7.05;2.97;;;;;;;16.56;63.44;100608.25;5048748;28;20044;-85
2024/04/21 11:31:04;;;;;;;3.80;2.03;;;;;;;17.00;58.70;100596.31;5048370;28;20022;-85
2024/04/21 11:33:32;;;;;;;3.63;2.25;;;;;;;17.55;63.12;100601.31;5050224;28;20364;-85
2024/04/21 11:36:01;;;;;;;2.08;1.88;;;;;;;17.97;59.96;100600.91;5048554;28;20015;-86
2024/04/21 11:38:31;;;;;;;4.15;2.22;;;;;;;18.16;52.69;100609.38;5050244;28;20023;-85
2024/04/21 11:40:58;;;;;;;2.92;2.15;;;;;;;18.26;57.13;100607.69;5050091;28;20348;-85
2024/04/21 11:43:31;;;;;;;2.58;1.58;;;;;;;18.35;52.72;100601.66;5050238;28;20548;-85
2024/04/21 11:46:02;;;;;;;2.55;1.50;;;;;;;18.64;54.33;100605.69;5050696;28;20493;-85
2024/04/21 11:48:36;;;;;;;2.03;1.80;;;;;;;18.99;53.40;100607.41;5048637;28;20483;-86
2024/04/21 11:51:05;;;;;;;3.10;1.58;;;;;;;19.44;54.22;100610.19;5051529;28;20026;-86
2024/04/21 11:53:53;;;;;;;1.73;1.60;;;;;;;19.90;56.62;100613.59;5045133;28;20454;-85
2024/04/21 11:56:22;;;;;;;2.03;1.55;;;;;;;20.29;57.16;100605.03;5048267;28;20023;-86
2024/04/21 11:58:49;;;;;;;1.70;1.60;;;;;;;20.65;55.96;100602.03;5049665;28;20014;-86
2024/04/21 12:01:15;;;;;;;1.40;1.30;;;;;;;20.96;54.88;100600.22;5049388;28;20027;-86
2024/04/21 12:03:48;;;;;;;3.80;1.40;;;;;;;21.23;53.74;100608.63;5049626;28;20019;-85
2024/04/21 12:06:14;;;;;;;1.60;1.45;;;;;;;21.35;51.86;100602.16;5049369;28;20100;-86
2024/04/21 12:08:41;;;;;;;1.75;1.35;;;;;;;21.41;50.60;100595.41;5049032;28;20024;-85
2024/04/21 12:11:10;;;;;;;1.70;1.17;;;;;;;21.47;50.61;100605.59;5049381;28;20022;-86
2024/04/21 12:13:46;;;;;;;1.20;1.10;;;;;;;21.57;51.01;100602.91;5073715;28;20015;-86
2024/04/21 12:16:12;;;;;;;1.80;1.58;;;;;;;21.77;51.32;100608.34;5073927;28;20007;-85
2024/04/21 12:18:42;;;;;;;2.25;1.88;;;;;;;21.82;45.78;100602.53;5050207;28;20011;-86
2024/04/21 12:21:09;;;;;;;8.40;2.35;;;;;;;21.72;46.62;100615.94;5049418;28;20035;-84
2024/04/21 12:23:40;;;;;;;3.20;1.60;;;;;;;21.43;45.67;100601.50;5049771;28;20011;-86
2024/04/21 12:26:16;;;;;;;2.22;1.80;;;;;;;21.05;45.03;100605.75;5049091;28;20354;-86
2024/04/21 12:28:42;;;;;;;2.00;1.67;;;;;;;20.53;45.35;100619.97;5049588;28;20007;-86
2024/04/21 12:31:13;;;;;;;1.75;1.60;;;;;;;19.98;43.22;100613.84;5049335;28;20011;-85
2024/04/21 12:33:43;;;;;;;2.45;1.58;;;;;;;19.46;43.20;100618.91;5050268;28;20011;-85
2024/04/21 12:36:10;;;;;;;1.90;1.58;;;;;;;19.02;46.33;100617.00;5050079;28;20022;-85
2024/04/21 12:38:37;;;;;;;3.28;1.70;;;;;;;18.73;48.12;100612.97;5047774;28;20475;-85
2024/04/21 12:41:08;;;;;;;2.65;1.63;;;;;;;18.70;50.46;100612.38;5048887;28;20039;-85
2024/04/21 12:43:39;;;;;;;1.63;1.52;;;;;;;18.81;49.87;100617.75;5047505;28;20020;-85
2024/04/21 12:46:08;;;;;;;1.70;1.60;;;;;;;18.87;47.56;100611.91;5049042;28;20563;-85
2024/04/21 12:48:35;;;;;;;2.08;1.70;;;;;;;18.88;48.22;100613.59;5047006;28;20087;-86
2024/04/21 12:51:04;;;;;;;2.03;1.52;;;;;;;18.77;47.12;100616.28;5048797;28;20015;-86
2024/04/21 12:53:31;;;;;;;2.00;1.52;;;;;;;18.55;46.75;100615.28;5049333;28;20022;-85
2024/04/21 12:55:58;;;;;;;2.17;1.80;;;;;;;18.28;46.68;100621.72;5049029;28;20015;-86
2024/04/21 12:58:25;;;;;;;1.77;1.52;;;;;;;18.01;47.80;100609.50;5048875;28;20008;-86
2024/04/21 13:00:53;;;;;;;3.35;1.75;;;;;;;17.83;48.64;100617.06;5049280;28;20019;-86
2024/04/21 13:03:26;;;;;;;1.95;1.75;;;;;;;17.68;48.28;100625.22;5050043;28;20380;-85
2024/04/21 13:06:02;;;;;;;2.00;1.75;;;;;;;17.55;48.77;100622.59;5047086;28;20378;-85
2024/04/21 13:08:30;;;;;;;2.03;1.60;;;;;;;17.44;49.11;100623.38;5047291;28;20012;-86
2024/04/21 13:10:58;;;;;;;1.98;1.45;;;;;;;17.39;49.61;100628.19;5046958;28;20442;-85
2024/04/21 13:13:24;;;;;;;4.32;1.92;;;;;;;17.52;51.69;100613.97;5048863;28;20499;-86
2024/04/21 13:15:51;;;;;;;1.75;1.58;;;;;;;17.82;52.36;100613.56;5047088;28;20020;-86
2024/04/21 13:18:18;;;;;;;2.17;1.60;;;;;;;18.23;53.65;100615.91;5073046;28;20007;-85
2024/04/21 13:20:49;;;;;;;1.98;1.30;;;;;;;18.65;50.77;100603.91;5047326;28;20084;-86
2024/04/21 13:23:16;;;;;;;1.88;1.50;;;;;;;18.94;49.42;100608.75;5047102;28;20483;-86
2024/04/21 13:25:43;;;;;;;1.30;1.20;;;;;;;19.17;49.95;100611.47;5048411;28;20065;-85
2024/04/21 13:28:14;;;;;;;1.55;1.30;;;;;;;19.45;47.56;100611.88;5049788;28;20021;-84
2024/04/21 13:30:45;;;;;;;3.05;1.40;;;;;;;19.82;51.01;100597.34;5049953;28;20011;-85
2024/04/21 13:33:12;;;;;;;1.92;1.40;;;;;;;20.13;49.58;100606.34;5050135;28;20015;-86
2024/04/21 13:35:44;;;;;;;1.30;1.00;;;;;;;20.30;45.35;100609.44;5046651;28;20011;-86
2024/04/21 13:38:16;;;;;;;1.55;1.17;;;;;;;20.36;47.19;100602.69;5046310;28;20019;-85
2024/04/21 13:40:44;;;;;;;1.30;1.20;;;;;;;20.30;46.42;100602.25;5046759;28;20015;-85
2024/04/21 13:43:23;;;;;;;1.25;1.15;;;;;;;20.14;43.21;100607.19;5046531;28;20015;-86
2024/04/21 13:45:50;;;;;;;3.63;1.73;;;;;;;19.88;43.67;100612.84;5046519;28;20070;-86
2024/04/21 13:48:22;;;;;;;1.40;1.23;;;;;;;19.54;44.07;100616.47;5047790;28;20052;-85
2024/04/21 13:50:49;;;;;;;1.58;1.48;;;;;;;19.24;45.18;100601.97;5046934;28;20011;-86
2024/04/21 13:53:17;;;;;;;1.50;1.30;;;;;;;19.00;45.02;100617.13;5048745;28;20018;-86
2024/04/21 13:55:46;;;;;;;1.40;1.30;;;;;;;18.91;44.92;100619.69;5049389;28;20015;-87
2024/04/21 13:58:17;;;;;;;2.30;1.70;;;;;;;19.08;48.94;100616.56;5049778;28;20043;-86
2024/04/21 14:00:45;;;;;;;2.50;1.55;;;;;;;19.43;49.59;100622.69;5047930;28;20092;-86
2024/04/21 14:03:18;;;;;;;1.73;1.40;;;;;;;19.89;49.77;100611.91;5047698;28;20007;-85
2024/04/21 14:05:45;;;;;;;1.55;1.17;;;;;;;20.27;47.92;100623.91;5047016;28;20027;-86
2024/04/21 14:08:11;;;;;;;1.52;1.25;;;;;;;20.50;46.03;100620.22;5048149;28;20494;-85
2024/04/21 14:10:38;;;;;;;1.92;1.58;;;;;;;20.48;44.23;100628.38;5048393;28;20019;-86
2024/04/21 14:13:05;;;;;;;1.67;1.38;;;;;;;20.38;45.27;100625.66;5046395;28;20538;-85
2024/04/21 14:15:32;;;;;;;1.55;1.45;;;;;;;20.42;46.46;100624.41;5048166;28;20023;-86
2024/04/21 14:17:59;;;;;;;2.58;1.23;;;;;;;20.62;48.23;100619.19;5047863;28;20459;-85
2024/04/21 14:20:27;;;;;;;1.25;1.02;;;;;;;21.04;49.86;100612.09;5046023;28;20427;-85
2024/04/21 14:22:53;;;;;;;2.42;1.30;;;;;;;21.58;48.09;100617.16;5045839;28;20007;-85
2024/04/21 14:25:20;;;;;;;2.20;1.30;;;;;;;22.04;46.05;100608.59;5048141;28;20019;-85
2024/04/21 14:27:47;;;;;;;1.83;1.20;;;;;;;22.26;44.11;100619.06;5047754;28;20011;-86
2024/04/21 14:30:14;;;;;;;1.02;0.98;;;;;;;22.23;41.95;100621.16;5047919;28;20026;-86
2024/04/21 14:32:41;;;;;;;1.55;1.45;;;;;;;21.96;41.29;100612.88;5049193;28;20019;-86
2024/04/21 14:35:07;;;;;;;4.35;1.52;;;;;;;21.57;40.68;100627.03;5049205;28;20413;-85
2024/04/21 14:37:34;;;;;;;1.55;1.42;;;;;;;21.15;41.01;100627.22;5051110;28;20007;-85
2024/04/21 14:40:01;;;;;;;2.75;1.33;;;;;;;20.76;41.69;100625.16;5049305;28;20011;-86
2024/04/21 14:42:28;;;;;;;1.83;1.30;;;;;;;20.49;42.37;100619.41;5049390;28;20339;-86
2024/04/21 14:45:03;;;;;;;1.85;1.42;;;;;;;20.30;43.18;100625.47;5050782;28;20011;-85
2024/04/21 14:47:32;;;;;;;1.27;1.10;;;;;;;20.26;44.46;100632.06;5050767;28;20011;-85
2024/04/21 14:49:59;;;;;;;1.55;1.10;;;;;;;20.37;45.04;100626.63;5051076;28;20687;-85
2024/04/21 14:52:35;;;;;;;1.88;1.10;;;;;;;20.61;41.80;100624.66;5050760;28;20007;-85
2024/04/21 14:55:06;;;;;;;1.67;1.23;;;;;;;20.97;45.34;100625.16;5050710;28;20083;-85
2024/04/21 14:57:32;;;;;;;1.23;1.13;;;;;;;21.33;45.50;100612.19;5048617;28;20387;-86
2024/04/21 15:00:02;;;;;;;1.20;1.10;;;;;;;21.67;44.42;100623.50;5048065;28;20092;-86
2024/04/21 15:02:29;;;;;;;1.17;1.00;;;;;;;21.92;43.39;100618.63;5049912;28;20007;-85
2024/04/21 15:04:58;;;;;;;1.20;1.10;;;;;;;21.96;41.57;100620.91;5050927;28;20039;-85
2024/04/21 15:07:28;;;;;;;1.27;1.00;;;;;;;21.85;39.00;100629.06;5049430;28;20228;-85
2024/04/21 15:09:55;;;;;;;1.27;1.15;;;;;;;21.61;40.19;100619.56;5051090;28;20087;-86
2024/04/21 15:12:22;;;;;;;1.45;1.27;;;;;;;21.31;40.52;100622.16;5050220;28;20027;-86
2024/04/21 15:14:48;;;;;;;1.25;1.10;;;;;;;21.09;41.40;100623.25;5048889;28;20011;-85
2024/04/21 15:17:15;;;;;;;1.92;1.20;;;;;;;20.93;41.05;100623.75;5050432;28;20581;-86
2024/04/21 15:19:45;;;;;;;1.83;1.20;;;;;;;20.73;40.75;100628.97;5050373;28;20011;-86
2024/04/21 15:22:11;;;;;;;1.58;1.23;;;;;;;20.48;40.38;100627.56;5050047;28;20065;-86
2024/04/21 15:24:38;;;;;;;1.60;1.50;;;;;;;20.17;40.03;100631.00;5050603;28;20043;-85
2024/04/21 15:27:05;;;;;;;3.65;1.45;;;;;;;19.91;41.74;100628.63;5050457;28;20003;-85
2024/04/21 15:29:32;;;;;;;1.77;1.58;;;;;;;19.82;41.98;100622.25;5050580;28;20080;-85
2024/04/21 15:31:58;;;;;;;1.70;1.60;;;;;;;19.81;42.27;100625.03;5037412;28;20019;-85
2024/04/21 15:34:25;;;;;;;1.98;1.10;;;;;;;19.79;42.62;100628.69;5028512;28;20007;-85
2024/04/21 15:36:52;;;;;;;1.98;1.33;;;;;;;19.73;41.64;100625.69;5049001;28;20011;-85
2024/04/21 15:39:19;;;;;;;1.63;1.30;;;;;;;19.59;41.13;100632.97;5037045;28;20016;-86
2024/04/21 15:41:45;;;;;;;1.80;1.40;;;;;;;19.35;40.96;100639.34;5019080;28;20019;-85
2024/04/21 15:44:12;;;;;;;3.25;1.65;;;;;;;19.06;40.66;100631.00;5017367;28;20093;-85
2024/04/21 15:46:39;;;;;;;1.77;1.23;;;;;;;18.85;42.04;100627.19;5017542;28;20004;-86
2024/04/21 15:49:06;;;;;;;1.73;1.20;;;;;;;18.70;42.54;100634.56;5019026;28;20012;-86
2024/04/21 15:51:34;;;;;;;3.00;1.50;;;;;;;18.64;42.45;100636.88;5019273;28;20331;-85
2024/04/21 15:54:02;;;;;;;1.38;1.27;;;;;;;18.65;42.63;100642.06;5019469;28;20016;-85
2024/04/21 15:56:29;;;;;;;2.20;1.15;;;;;;;18.77;44.06;100626.94;5021933;28;20012;-85
2024/04/21 15:58:56;;;;;;;3.47;1.20;;;;;;;18.98;44.93;100635.06;5035157;28;20016;-85
2024/04/21 16:01:23;;;;;;;2.53;1.40;;;;;;;19.26;44.14;100634.75;5019134;28;20012;-86
2024/04/21 16:03:50;;;;;;;1.45;1.30;;;;;;;19.51;43.37;100640.78;5018847;28;20159;-86
2024/04/21 16:06:16;;;;;;;2.13;1.35;;;;;;;19.70;42.50;100632.09;5018804;28;20048;-85
2024/04/21 16:08:43;;;;;;;1.90;1.40;;;;;;;19.82;41.97;100638.28;5017133;28;20016;-85
2024/04/21 16:11:10;;;;;;;1.98;1.35;;;;;;;19.84;41.52;100646.16;5018580;28;20024;-86
2024/04/21 16:13:37;;;;;;;1.45;1.35;;;;;;;19.78;40.95;100637.66;5016922;28;20093;-86
2024/04/21 16:16:04;;;;;;;1.35;1.20;;;;;;;19.69;40.89;100641.09;5024061;28;20383;-85
2024/04/21 16:18:32;;;;;;;7.28;1.55;;;;;;;19.55;40.75;100644.88;5049563;28;20026;-86
2024/04/21 16:20:59;;;;;;;2.25;1.30;;;;;;;19.38;41.17;100639.09;5044974;28;20022;-86
2024/04/21 16:23:26;;;;;;;2.42;1.33;;;;;;;19.22;41.06;100644.78;5047138;28;20030;-85
2024/04/21 16:25:53;;;;;;;4.05;1.45;;;;;;;19.06;41.12;100629.16;5046714;28;20171;-85
2024/04/21 16:28:20;;;;;;;1.95;1.27;;;;;;;18.86;40.52;100642.22;5047909;28;20471;-85
2024/04/21 16:31:06;;;;;;;3.65;1.38;;;;;;;18.61;38.82;100643.25;5050094;28;20007;-87
2024/04/21 16:33:33;;;;;;;2.08;1.50;;;;;;;18.32;40.19;100649.03;5051277;28;20011;-85
2024/04/21 16:36:20;;;;;;;2.42;1.50;;;;;;;17.91;38.79;100651.13;5047948;28;20549;-86
2024/04/21 16:38:48;;;;;;;1.27;1.17;;;;;;;17.66;40.43;100655.56;5044555;28;20547;-86
2024/04/21 16:41:15;;;;;;;2.05;1.45;;;;;;;17.36;40.98;100649.69;5046257;28;20008;-86
2024/04/21 16:43:45;;;;;;;3.35;1.77;;;;;;;17.07;41.16;100649.94;5046556;28;20021;-86
2024/04/21 16:46:14;;;;;;;2.00;1.42;;;;;;;16.80;40.74;100653.53;5047613;28;20030;-86
2024/04/21 16:48:41;;;;;;;2.65;1.48;;;;;;;16.58;41.18;100656.81;5047573;28;20007;-86
2024/04/21 16:51:09;;;;;;;2.60;1.63;;;;;;;16.32;41.44;100648.78;5048453;28;20542;-86
2024/04/21 16:53:36;;;;;;;3.92;1.60;;;;;;;16.10;41.60;100647.56;5047469;28;20053;-85
2024/04/21 16:56:05;;;;;;;3.30;1.42;;;;;;;15.88;41.16;100654.25;5047748;28;20015;-86
2024/04/21 16:58:33;;;;;;;2.03;1.30;;;;;;;15.70;42.18;100659.81;5047571;28;20332;-86
2024/04/21 17:01:01;;;;;;;2.83;1.50;;;;;;;15.58;43.09;100666.75;5048576;28;20072;-86
2024/04/21 17:03:28;;;;;;;2.88;1.30;;;;;;;15.45;42.70;100653.44;5046754;28;20007;-86
2024/04/21 17:05:55;;;;;;;2.47;1.70;;;;;;;15.33;42.55;100656.84;5047919;28;20023;-86
2024/04/21 17:08:35;;;;;;;4.65;1.65;;;;;;;15.17;40.76;100667.56;5047505;28;20004;-86
2024/04/21 17:11:02;;;;;;;5.25;1.63;;;;;;;15.02;42.72;100659.59;5048525;28;20026;-85
2024/04/21 17:13:32;;;;;;;4.15;2.08;;;;;;;14.88;42.86;100667.56;5049267;28;20011;-86
2024/04/21 17:15:58;;;;;;;2.22;1.48;;;;;;;14.71;43.14;100667.59;5049609;28;20015;-86
2024/04/21 17:18:26;;;;;;;3.10;1.60;;;;;;;14.58;43.55;100672.75;5048927;28;20026;-86
2024/04/21 17:20:52;;;;;;;3.00;2.00;;;;;;;14.45;43.26;100671.78;5048534;28;20055;-86
2024/04/21 17:28:52;;;;;;;3.78;1.60;;;;;;;14.04;44.95;100683.81;4987443;28;20089;-87
2024/04/21 17:31:18;;;;;;;4.25;1.70;;;;;;;13.93;44.76;100680.00;4991510;28;20030;-87
2024/04/21 17:33:45;;;;;;;3.38;1.50;;;;;;;13.88;45.20;100695.28;4992979;28;20016;-87
2024/04/21 17:36:12;;;;;;;2.97;1.65;;;;;;;13.80;45.61;100694.84;5017363;28;20044;-87
2024/04/21 17:38:41;;;;;;;3.65;1.95;;;;;;;13.73;46.12;100691.69;4991874;28;20008;-87
2024/04/21 17:41:09;;;;;;;3.47;2.20;;;;;;;13.67;46.10;100689.38;4991703;28;20020;-87
2024/04/21 17:43:36;;;;;;;3.75;2.35;;;;;;;13.64;46.52;100692.22;4992601;28;20012;-87
2024/04/21 17:46:03;;;;;;;4.13;2.60;;;;;;;13.59;47.11;100689.81;5016661;28;20022;-88
2024/04/21 17:48:30;;;;;;;3.25;2.47;;;;;;;13.54;47.50;100694.50;5017102;28;20055;-87
2024/04/21 17:50:58;;;;;;;2.95;2.30;;;;;;;13.50;47.75;100704.38;5016178;28;20019;-87
2024/04/21 17:53:25;;;;;;;8.70;3.13;;;;;;;13.41;47.53;100687.19;5018297;28;20020;-87
2024/04/21 17:55:52;;;;;;;4.35;2.47;;;;;;;13.36;47.98;100707.75;4990961;28;20023;-87
2024/04/21 17:58:19;;;;;;;3.60;2.80;;;;;;;13.28;48.15;100707.31;5017503;28;20028;-87
2024/04/21 18:00:45;;;;;;;6.32;3.22;;;;;;;13.22;48.56;100707.59;5015971;28;20047;-87
2024/04/21 18:03:12;;;;;;;4.18;2.72;;;;;;;13.14;49.11;100705.38;4992082;28;20598;-87
2024/04/21 18:05:39;;;;;;;4.28;2.70;;;;;;;13.07;48.91;100711.91;5016354;28;20012;-87
2024/04/21 18:08:06;;;;;;;4.50;3.25;;;;;;;13.00;49.24;100708.72;4991288;28;20089;-87
2024/04/21 18:10:33;;;;;;;4.50;3.30;;;;;;;12.92;49.00;100709.13;4991840;28;20027;-87
2024/04/21 18:13:02;;;;;;;3.20;2.88;;;;;;;12.87;49.81;100719.09;5016710;28;20077;-87
2024/04/21 18:15:29;;;;;;;4.78;3.05;;;;;;;12.80;49.75;100721.19;4991578;28;20012;-87
2024/04/21 18:17:56;;;;;;;3.88;2.72;;;;;;;12.73;50.13;100712.72;5017506;28;20397;-87
2024/04/21 18:20:23;;;;;;;3.88;2.78;;;;;;;12.68;50.44;100724.47;4991820;28;20020;-87
2024/04/21 18:22:51;;;;;;;6.47;2.70;;;;;;;12.62;50.64;100731.75;4991571;28;20392;-87
2024/04/21 18:25:18;;;;;;;3.72;3.15;;;;;;;12.55;50.63;100722.44;4991637;28;20019;-88
2024/04/21 18:27:45;;;;;;;4.15;2.92;;;;;;;12.49;50.67;100725.38;5015003;28;20012;-86
2024/04/21 18:30:13;;;;;;;3.20;2.80;;;;;;;12.42;51.21;100727.47;5016377;28;20040;-87
2024/04/21 18:32:40;;;;;;;4.30;3.03;;;;;;;12.35;51.44;100728.69;5016853;28;20066;-87
2024/04/21 18:35:08;;;;;;;4.10;2.88;;;;;;;12.29;51.87;100732.47;4991720;28;20022;-88
2024/04/21 18:37:35;;;;;;;5.18;3.08;;;;;;;12.22;51.86;100723.13;5016366;28;20012;-87
2024/04/21 18:40:04;;;;;;;4.43;3.33;;;;;;;12.19;52.03;100736.50;5017866;28;20360;-88
2024/04/21 18:42:31;;;;;;;3.58;3.10;;;;;;;12.12;51.93;100723.59;4990945;28;20023;-87
2024/04/21 18:45:00;;;;;;;4.47;3.10;;;;;;;12.06;52.21;100728.31;4991291;28;20004;-87
2024/04/21 18:47:27;;;;;;;5.75;3.25;;;;;;;12.03;52.31;100731.09;5016828;28;20019;-88
2024/04/21 18:49:55;;;;;;;4.05;3.00;;;;;;;11.97;52.29;100729.59;5016149;28;20468;-87
2024/04/21 18:52:22;;;;;;;3.83;3.00;;;;;;;11.91;52.51;100735.13;4991151;28;20538;-87
2024/04/21 18:54:49;;;;;;;4.60;3.10;;;;;;;11.84;52.25;100735.44;4991342;28;20011;-87
2024/04/21 18:57:15;;;;;;;4.63;2.97;;;;;;;11.78;52.47;100740.97;5017092;28;20011;-87
2024/04/21 18:59:42;;;;;;;6.72;3.40;;;;;;;11.72;52.65;100749.19;5016370;28;20562;-87
2024/04/21 19:02:11;;;;;;;3.92;2.88;;;;;;;11.65;52.57;100748.63;5015497;28;20012;-86
2024/04/21 19:04:39;;;;;;;6.05;3.03;;;;;;;11.57;52.78;100759.53;5015281;28;20385;-87
2024/04/21 19:07:09;;;;;;;3.97;3.03;;;;;;;11.47;52.28;100764.34;4989767;28;20016;-86
2024/04/21 19:09:40;;;;;;;3.97;2.85;;;;;;;11.43;52.92;100767.16;5017352;28;20019;-86
2024/04/21 19:12:07;;;;;;;4.70;2.70;;;;;;;11.36;52.89;100766.59;5019347;28;20012;-85
2024/04/21 19:14:34;;;;;;;4.63;3.00;;;;;;;11.29;53.39;100767.78;4992419;28;20023;-86
2024/04/21 19:17:02;;;;;;;4.22;2.72;;;;;;;11.25;53.24;100766.22;4990764;28;20016;-85
2024/04/21 19:19:29;;;;;;;3.40;2.63;;;;;;;11.20;53.63;100766.41;4992230;28;20012;-86
2024/04/21 19:21:56;;;;;;;4.72;2.92;;;;;;;11.15;53.76;100764.00;5020233;28;20016;-86
2024/04/21 19:24:23;;;;;;;4.90;2.90;;;;;;;11.12;53.88;100771.16;5020879;28;20008;-86
2024/04/21 19:26:50;;;;;;;4.47;2.80;;;;;;;11.09;53.66;100764.22;4993798;28;20011;-86
2024/04/21 19:29:16;;;;;;;3.72;2.47;;;;;;;11.08;54.20;100765.16;5019288;28;20008;-86
2024/04/21 19:31:44;;;;;;;4.70;3.13;;;;;;;11.05;54.56;100763.53;5020959;28;20027;-85
2024/04/21 19:34:10;;;;;;;5.38;2.88;;;;;;;11.02;54.32;100761.00;4993788;28;20012;-85
2024/04/21 19:36:37;;;;;;;4.43;2.72;;;;;;;11.02;54.55;100768.91;4993997;28;20097;-87
2024/04/21 19:39:04;;;;;;;5.43;3.13;;;;;;;11.00;54.21;100769.91;5020635;28;20023;-87
2024/04/21 19:41:30;;;;;;;5.75;3.10;;;;;;;10.94;54.55;100769.25;4993352;28;20020;-87
2024/04/21 19:43:57;;;;;;;5.85;3.25;;;;;;;10.91;54.57;100776.41;5020396;28;20012;-87
2024/04/21 19:46:25;;;;;;;8.20;3.50;;;;;;;10.86;54.21;100776.59;4993496;28;20031;-87
2024/04/21 19:48:52;;;;;;;4.57;2.90;;;;;;;10.82;54.43;100780.28;5019248;28;20012;-86
2024/04/21 19:51:19;;;;;;;5.50;3.40;;;;;;;10.72;54.31;100765.81;5020477;28;20016;-85
2024/04/21 19:53:45;;;;;;;5.70;3.10;;;;;;;10.66;54.36;100774.81;5020528;28;20024;-86
2024/04/21 19:56:12;;;;;;;4.53;2.80;;;;;;;10.60;54.58;100775.91;5020493;28;20356;-85
2024/04/21 19:58:40;;;;;;;3.45;2.72;;;;;;;10.54;54.51;100781.41;5020264;28;20487;-85
2024/04/21 20:01:07;;;;;;;3.47;2.75;;;;;;;10.47;54.70;100777.31;4993294;28;20015;-86
2024/04/21 20:03:33;;;;;;;3.38;2.70;;;;;;;10.42;55.27;100772.19;5020421;28;20008;-85
2024/04/21 20:06:00;;;;;;;4.63;3.10;;;;;;;10.36;55.15;100777.72;5018850;28;20053;-85
2024/04/21 20:08:27;;;;;;;4.75;2.97;;;;;;;10.34;55.27;100785.69;4993685;28;20011;-85
2024/04/21 20:10:54;;;;;;;5.03;2.90;;;;;;;10.31;55.56;100780.53;4993112;28;20012;-85
2024/04/21 20:13:20;;;;;;;4.10;2.53;;;;;;;10.28;55.61;100783.28;5018872;28;20016;-85
2024/04/21 20:18:39;;;;;;;3.67;2.90;;;;;;;10.29;55.91;100798.16;5019994;28;20012;-85
2024/04/21 20:21:07;;;;;;;3.63;2.65;;;;;;;10.26;55.91;100798.28;4992653;28;20012;-85
2024/04/21 20:23:34;;;;;;;2.92;2.40;;;;;;;10.25;55.90;100800.03;5018477;28;20019;-85
2024/04/21 20:26:03;;;;;;;4.07;2.83;;;;;;;10.21;55.92;100800.22;5018111;28;20036;-86
2024/04/21 20:28:30;;;;;;;3.85;2.83;;;;;;;10.19;56.22;100799.41;4993244;28;20008;-85
2024/04/21 20:30:57;;;;;;;5.72;3.15;;;;;;;10.17;56.15;100802.13;5018993;28;20012;-86
2024/04/21 20:33:24;;;;;;;3.90;2.70;;;;;;;10.12;56.32;100807.56;4992766;28;20459;-85
2024/04/21 20:35:51;;;;;;;3.47;2.33;;;;;;;10.10;56.29;100803.28;4993197;28;20032;-86
2024/04/21 20:38:17;;;;;;;4.25;2.85;;;;;;;10.06;56.20;100799.03;4993355;28;20019;-85
2024/04/21 20:40:46;;;;;;;4.78;2.90;;;;;;;10.02;56.25;100801.78;5019855;28;20031;-87
2024/04/21 20:43:13;;;;;;;4.18;3.03;;;;;;;10.01;56.49;100794.81;5019703;28;20085;-85
2024/04/21 20:45:40;;;;;;;4.45;2.53;;;;;;;10.00;56.97;100800.13;5018084;28;20089;-86
2024/04/21 20:48:06;;;;;;;4.10;2.83;;;;;;;9.96;56.88;100794.13;5019450;28;20023;-87
2024/04/21 20:50:33;;;;;;;3.58;2.88;;;;;;;9.94;56.81;100801.22;5017711;28;20017;-87
2024/04/21 20:53:00;;;;;;;3.92;2.70;;;;;;;9.92;56.91;100797.78;4992571;28;20019;-87
2024/04/21 20:55:27;;;;;;;3.15;2.72;;;;;;;9.89;57.14;100803.16;5020104;28;20011;-85
2024/04/21 20:57:54;;;;;;;3.58;2.80;;;;;;;9.88;57.11;100798.81;4992563;28;20024;-85
2024/04/21 21:00:20;;;;;;;3.88;3.10;;;;;;;9.86;57.40;100806.75;5019017;28;20027;-85
2024/04/21 21:02:47;;;;;;;3.90;3.08;;;;;;;9.85;57.17;100804.19;4993709;28;20862;-85
2024/04/21 21:05:14;;;;;;;5.55;2.90;;;;;;;9.84;57.16;100803.34;4981603;28;20012;-85
2024/04/21 21:07:40;;;;;;;3.72;2.80;;;;;;;9.83;57.00;100806.03;4994275;28;20008;-85
2024/04/21 21:10:08;;;;;;;3.22;2.92;;;;;;;9.80;57.22;100811.41;4990547;28;20484;-85
2024/04/21 21:12:35;;;;;;;3.22;2.72;;;;;;;9.78;57.38;100808.81;4963673;28;20348;-85
2024/04/21 21:15:01;;;;;;;4.55;2.95;;;;;;;9.75;57.73;100806.28;4964059;28;20029;-85
2024/04/21 21:17:29;;;;;;;6.40;2.92;;;;;;;9.74;57.60;100821.22;4990529;28;20488;-85
2024/04/21 21:19:56;;;;;;;3.20;2.83;;;;;;;9.74;57.53;100802.81;4963711;28;20013;-86
2024/04/21 21:22:22;;;;;;;4.18;2.88;;;;;;;9.74;57.90;100815.09;4990374;28;20019;-85
2024/04/21 21:24:49;;;;;;;3.67;2.67;;;;;;;9.72;57.67;100812.53;4990349;28;20027;-85
2024/04/21 21:27:16;;;;;;;4.70;2.92;;;;;;;9.71;57.73;100809.94;4963337;28;20023;-86
2024/04/21 21:29:42;;;;;;;3.85;3.00;;;;;;;9.71;57.79;100809.94;4990152;28;20272;-87
2024/04/21 21:32:09;;;;;;;6.00;2.95;;;;;;;9.70;58.12;100810.88;4963126;28;20023;-86
2024/04/21 21:34:36;;;;;;;4.70;2.88;;;;;;;9.68;57.80;100816.19;4963709;28;20028;-86
2024/04/21 21:37:03;;;;;;;5.53;3.45;;;;;;;9.66;57.86;100807.50;4963730;28;20031;-87
2024/04/21 21:39:29;;;;;;;5.18;3.40;;;;;;;9.65;57.90;100816.31;4990228;28;20024;-87
2024/04/21 21:41:56;;;;;;;4.05;3.15;;;;;;;9.63;58.13;100811.09;4962517;28;20005;-87
2024/04/21 21:44:23;;;;;;;5.03;3.15;;;;;;;9.59;58.08;100811.25;4961435;28;20013;-87
2024/04/21 21:46:49;;;;;;;5.75;3.80;;;;;;;9.60;58.20;100812.97;4989350;28;20012;-85
2024/04/21 21:49:16;;;;;;;4.45;3.13;;;;;;;9.58;58.44;100809.53;4989918;28;20013;-85
2024/04/21 21:51:43;;;;;;;4.75;3.15;;;;;;;9.57;58.38;100811.31;4962901;28;20376;-85